createdAt,value
2019-03-21T00:01:36.311Z,99.90
2019-03-21T00:04:12.391Z,99.90
2019-03-21T00:06:45.592Z,99.90
2019-03-21T00:09:21.049Z,99.90
2019-03-21T00:12:05.406Z,99.90
2019-03-21T00:15:12.375Z,99.90
2019-03-21T00:17:48.886Z,99.90
2019-03-21T00:20:23.409Z,99.90
2019-03-21T00:22:56.794Z,99.90
2019-03-21T00:25:29.855Z,99.90
2019-03-21T00:28:02.835Z,99.90
2019-03-21T00:30:35.669Z,99.90
2019-03-21T00:33:08.607Z,99.90
2019-03-21T00:35:42.939Z,99.90
2019-03-21T00:38:16.404Z,99.90
2019-03-21T00:40:50.182Z,99.90
2019-03-21T00:43:23.049Z,99.90
2019-03-21T00:45:56.797Z,99.90
2019-03-21T00:48:30.164Z,99.90
2019-03-21T00:51:03.206Z,99.90
2019-03-21T00:53:36.901Z,99.90
2019-03-21T00:56:10.215Z,99.90
2019-03-21T00:58:43.177Z,99.90
2019-03-21T01:01:16.413Z,99.90
2019-03-21T01:03:50.306Z,99.90
2019-03-21T01:06:23.249Z,99.90
2019-03-21T01:08:56.470Z,99.90
2019-03-21T01:11:30.126Z,99.90
2019-03-21T01:14:03.471Z,99.90
2019-03-21T01:16:37.076Z,99.90
2019-03-21T01:19:10.386Z,99.90
2019-03-21T01:21:43.604Z,99.90
2019-03-21T01:24:17.155Z,99.90
2019-03-21T01:26:50.245Z,99.90
2019-03-21T01:29:23.539Z,99.90
2019-03-21T01:31:56.345Z,99.90
2019-03-21T01:34:29.557Z,99.90
2019-03-21T01:37:02.582Z,99.90
2019-03-21T01:39:35.913Z,99.90
2019-03-21T01:42:08.925Z,99.90
2019-03-21T01:44:42.754Z,99.90
2019-03-21T01:47:16.166Z,99.90
2019-03-21T01:49:49.631Z,99.90
2019-03-21T01:52:22.582Z,99.90
2019-03-21T01:54:55.677Z,99.90
2019-03-21T01:57:28.725Z,99.90
2019-03-21T02:00:01.638Z,99.90
2019-03-21T02:02:34.697Z,99.90
2019-03-21T02:05:08.237Z,99.90
2019-03-21T02:07:41.724Z,99.90
2019-03-21T02:10:17.286Z,99.90
2019-03-21T02:12:50.768Z,99.90
2019-03-21T02:15:25.021Z,99.90
2019-03-21T02:17:58.759Z,99.90
2019-03-21T02:20:31.795Z,99.90
2019-03-21T02:23:04.763Z,99.90
2019-03-21T02:25:37.779Z,99.90
2019-03-21T02:28:11.058Z,99.90
2019-03-21T02:30:43.936Z,99.90
2019-03-21T02:33:20.987Z,99.90
2019-03-21T02:35:56.774Z,99.90
2019-03-21T02:38:30.012Z,99.90
2019-03-21T02:41:04.295Z,99.90
2019-03-21T02:43:37.339Z,99.90
2019-03-21T02:46:10.997Z,99.90
2019-03-21T02:48:43.926Z,99.90
2019-03-21T02:51:17.348Z,99.90
2019-03-21T02:53:50.751Z,99.90
2019-03-21T02:56:24.248Z,99.90
2019-03-21T02:58:57.450Z,99.90
2019-03-21T03:01:31.042Z,99.90
2019-03-21T03:04:04.474Z,99.90
2019-03-21T03:06:37.831Z,99.90
2019-03-21T03:09:12.408Z,99.90
2019-03-21T03:11:45.927Z,99.90
2019-03-21T03:14:19.358Z,99.90
2019-03-21T03:16:52.862Z,99.90
2019-03-21T03:19:26.328Z,99.90
2019-03-21T03:21:59.489Z,99.90
2019-03-21T03:24:34.690Z,99.90
2019-03-21T03:27:07.794Z,99.90
2019-03-21T03:29:41.475Z,99.90
2019-03-21T03:32:14.935Z,99.90
2019-03-21T03:34:48.232Z,99.90
2019-03-21T03:37:21.556Z,99.90
2019-03-21T03:39:55.124Z,99.90
2019-03-21T03:42:28.353Z,99.90
2019-03-21T03:45:01.911Z,99.90
2019-03-21T03:47:35.625Z,99.90
2019-03-21T03:50:09.022Z,99.90
2019-03-21T03:52:42.371Z,99.90
2019-03-21T03:55:15.786Z,99.90
2019-03-21T03:57:51.329Z,99.90
2019-03-21T04:00:24.902Z,99.90
2019-03-21T04:02:58.906Z,99.90
2019-03-21T04:05:32.304Z,99.90
2019-03-21T04:08:05.760Z,99.90
2019-03-21T04:10:41.348Z,99.90
2019-03-21T04:13:14.759Z,99.90
2019-03-21T04:15:53.405Z,99.90
2019-03-21T04:18:22.464Z,99.90
2019-03-21T04:20:56.203Z,99.90
2019-03-21T04:23:30.020Z,99.90
2019-03-21T04:26:09.715Z,99.90
2019-03-21T04:28:42.844Z,99.90
2019-03-21T04:31:16.172Z,99.90
2019-03-21T04:33:49.546Z,99.90
2019-03-21T04:36:22.699Z,99.90
2019-03-21T04:38:55.936Z,99.90
2019-03-21T04:41:29.734Z,99.90
2019-03-21T04:44:02.777Z,99.90
2019-03-21T04:46:36.054Z,99.90
2019-03-21T04:49:09.263Z,99.90
2019-03-21T04:51:43.066Z,99.90
2019-03-21T04:54:16.249Z,99.90
2019-03-21T04:56:49.162Z,99.90
2019-03-21T04:59:22.243Z,99.90
2019-03-21T05:01:55.519Z,99.90
2019-03-21T05:04:28.643Z,99.90
2019-03-21T05:07:02.298Z,99.90
2019-03-21T05:09:35.711Z,99.90
2019-03-21T05:12:09.389Z,99.90
2019-03-21T05:14:42.601Z,99.90
2019-03-21T05:17:16.467Z,99.90
2019-03-21T05:19:49.261Z,99.90
2019-03-21T05:22:22.700Z,99.90
2019-03-21T05:24:56.297Z,99.90
2019-03-21T05:27:30.004Z,99.90
2019-03-21T05:30:02.999Z,99.90
2019-03-21T05:32:36.279Z,99.90
2019-03-21T05:35:10.653Z,99.90
2019-03-21T05:37:43.896Z,99.90
2019-03-21T05:40:18.219Z,99.90
2019-03-21T05:42:58.573Z,99.90
2019-03-21T05:45:31.900Z,99.90
2019-03-21T05:48:05.133Z,99.90
2019-03-21T05:50:38.763Z,99.90
2019-03-21T05:53:12.266Z,99.90
2019-03-21T05:55:45.842Z,99.90
2019-03-21T05:58:19.259Z,99.90
2019-03-21T06:00:52.682Z,99.90
2019-03-21T06:03:29.190Z,99.90
2019-03-21T06:06:17.271Z,99.90
2019-03-21T06:08:50.538Z,99.90
2019-03-21T06:11:23.759Z,99.90
2019-03-21T06:13:57.209Z,99.90
2019-03-21T06:16:37.691Z,99.90
2019-03-21T06:19:15.578Z,99.90
2019-03-21T06:22:18.111Z,99.90
2019-03-21T06:25:27.945Z,99.90
2019-03-21T06:28:01.543Z,99.90
2019-03-21T06:30:35.162Z,99.90
2019-03-21T06:33:08.328Z,99.90
2019-03-21T06:35:41.252Z,99.90
2019-03-21T06:38:14.569Z,99.90
2019-03-21T06:40:47.561Z,99.90
2019-03-21T06:43:20.664Z,99.90
2019-03-21T06:45:53.554Z,99.90
2019-03-21T06:48:27.645Z,99.90
2019-03-21T06:51:00.954Z,99.90
2019-03-21T06:53:34.499Z,99.90
2019-03-21T06:56:08.687Z,99.90
2019-03-21T06:58:42.001Z,99.90
2019-03-21T07:01:15.541Z,99.90
2019-03-21T07:03:48.576Z,99.90
2019-03-21T07:06:22.105Z,99.90
2019-03-21T07:08:55.792Z,99.90
2019-03-21T07:11:29.538Z,99.90
2019-03-21T07:14:02.811Z,99.90
2019-03-21T07:16:36.951Z,99.90
2019-03-21T07:19:10.202Z,99.90
2019-03-21T07:21:43.377Z,99.90
2019-03-21T07:24:16.754Z,99.90
2019-03-21T07:26:49.610Z,99.90
2019-03-21T07:29:22.686Z,99.90
2019-03-21T07:31:56.052Z,99.90
2019-03-21T07:34:29.170Z,99.90
2019-03-21T07:37:02.215Z,99.90
2019-03-21T07:39:35.727Z,99.90
2019-03-21T07:42:09.399Z,99.90
2019-03-21T07:44:42.226Z,99.90
2019-03-21T07:47:15.358Z,99.90
2019-03-21T07:49:48.625Z,99.90
2019-03-21T07:52:22.003Z,99.90
2019-03-21T07:54:55.614Z,99.90
2019-03-21T07:57:28.496Z,99.90
2019-03-21T08:00:01.999Z,99.90
2019-03-21T08:02:35.047Z,99.90
2019-03-21T08:05:08.570Z,99.90
2019-03-21T08:07:41.799Z,99.90
2019-03-21T08:10:15.304Z,99.90
2019-03-21T08:12:48.306Z,99.90
2019-03-21T08:15:22.062Z,99.90
2019-03-21T08:17:55.396Z,99.90
2019-03-21T08:20:28.674Z,99.90
2019-03-21T08:23:01.800Z,99.90
2019-03-21T08:25:35.125Z,99.90
2019-03-21T08:28:08.284Z,99.90
2019-03-21T08:31:00.975Z,99.90
2019-03-21T08:33:34.098Z,99.90
2019-03-21T08:36:07.338Z,99.90
2019-03-21T08:38:41.208Z,99.90
2019-03-21T08:41:15.072Z,99.90
2019-03-21T08:43:48.546Z,99.90
2019-03-21T08:46:21.769Z,99.90
2019-03-21T08:48:54.993Z,99.90
2019-03-21T08:51:28.356Z,99.90
2019-03-21T08:54:01.330Z,99.90
2019-03-21T08:56:34.312Z,99.90
2019-03-21T08:59:07.431Z,99.90
2019-03-21T09:01:40.911Z,99.90
2019-03-21T09:04:14.199Z,99.90
2019-03-21T09:06:47.922Z,99.90
2019-03-21T09:09:21.052Z,99.90
2019-03-21T09:11:54.775Z,99.90
2019-03-21T09:14:28.083Z,99.90
2019-03-21T09:17:02.683Z,99.90
2019-03-21T09:19:36.723Z,99.90
2019-03-21T09:22:09.623Z,99.90
2019-03-21T09:24:42.754Z,99.90
2019-03-21T09:27:15.663Z,99.90
2019-03-21T09:29:53.578Z,99.90
2019-03-21T09:32:23.711Z,99.90
2019-03-21T09:34:57.198Z,99.90
2019-03-21T09:37:30.378Z,99.90
2019-03-21T09:40:03.671Z,99.90
2019-03-21T09:42:36.606Z,99.90
2019-03-21T09:45:10.847Z,99.90
2019-03-21T09:47:44.198Z,99.90
2019-03-21T09:50:23.531Z,99.90
2019-03-21T09:52:56.811Z,99.90
2019-03-21T09:55:30.119Z,99.90
2019-03-21T09:58:03.825Z,99.90
2019-03-21T10:00:38.072Z,99.90
2019-03-21T10:03:11.726Z,99.90
2019-03-21T10:05:45.109Z,99.90
2019-03-21T10:08:18.227Z,99.90
2019-03-21T10:10:51.860Z,99.90
2019-03-21T10:13:25.836Z,99.90
2019-03-21T10:15:59.209Z,99.90
2019-03-21T10:18:35.707Z,99.90
2019-03-21T10:21:08.778Z,99.90
2019-03-21T10:23:42.302Z,99.90
2019-03-21T10:26:15.558Z,99.90
2019-03-21T10:28:48.782Z,99.90
2019-03-21T10:31:21.749Z,99.90
2019-03-21T10:33:55.443Z,99.90
2019-03-21T10:36:28.563Z,99.90
2019-03-21T10:39:02.136Z,99.90
2019-03-21T10:41:35.764Z,99.90
2019-03-21T10:44:09.270Z,99.90
2019-03-21T10:46:42.731Z,99.90
2019-03-21T10:49:15.705Z,99.90
2019-03-21T10:51:54.880Z,99.90
2019-03-21T10:54:23.779Z,99.90
2019-03-21T10:56:57.138Z,99.90
2019-03-21T10:59:30.241Z,99.90
2019-03-21T11:02:07.448Z,99.90
2019-03-21T11:04:38.148Z,99.90
2019-03-21T11:07:07.450Z,99.90
2019-03-21T11:09:40.743Z,99.90
2019-03-21T11:12:14.411Z,99.90
2019-03-21T11:14:47.868Z,99.90
2019-03-21T11:17:21.567Z,99.90
2019-03-21T11:19:55.156Z,99.90
2019-03-21T11:22:28.494Z,99.90
2019-03-21T11:25:01.666Z,99.90
2019-03-21T11:27:35.530Z,99.90
2019-03-21T11:30:15.912Z,99.90
2019-03-21T11:32:44.038Z,99.90
2019-03-21T11:35:17.562Z,99.90
2019-03-21T11:37:50.814Z,99.90
2019-03-21T11:40:23.831Z,99.90
2019-03-21T11:42:56.759Z,99.90
2019-03-21T11:45:29.938Z,99.90
2019-03-21T11:48:03.242Z,99.90
2019-03-21T11:50:37.024Z,99.90
2019-03-21T11:53:10.776Z,99.90
2019-03-21T11:55:44.368Z,99.90
2019-03-21T11:58:17.811Z,99.90
2019-03-21T12:00:51.363Z,99.90
2019-03-21T12:03:24.457Z,99.90
2019-03-21T12:05:57.848Z,99.90
2019-03-21T12:08:31.006Z,99.90
2019-03-21T12:11:03.646Z,99.90
2019-03-21T12:13:36.983Z,99.90
2019-03-21T12:16:10.226Z,99.90
2019-03-21T12:18:43.605Z,99.90
2019-03-21T12:21:17.388Z,99.90
2019-03-21T12:23:50.583Z,99.90
2019-03-21T12:26:23.853Z,99.90
2019-03-21T12:28:56.987Z,99.90
2019-03-21T12:31:30.519Z,99.90
2019-03-21T12:34:04.126Z,99.90
2019-03-21T12:36:37.334Z,99.90
2019-03-21T12:39:12.023Z,99.90
2019-03-21T12:41:45.797Z,99.90
2019-03-21T12:44:19.453Z,99.90
2019-03-21T12:46:52.715Z,99.90
2019-03-21T12:49:26.309Z,99.90
2019-03-21T12:51:59.521Z,99.90
2019-03-21T12:54:33.119Z,99.90
2019-03-21T12:57:06.574Z,99.90
2019-03-21T12:59:39.628Z,99.90
2019-03-21T13:02:12.574Z,99.90
2019-03-21T13:04:45.663Z,99.90
2019-03-21T13:07:19.520Z,99.90
2019-03-21T13:09:53.256Z,99.90
2019-03-21T13:12:26.513Z,99.90
2019-03-21T13:15:00.356Z,99.90
2019-03-21T13:17:33.758Z,99.90
2019-03-21T13:20:07.130Z,99.90
2019-03-21T13:22:40.522Z,99.90
2019-03-21T13:25:13.977Z,99.90
2019-03-21T13:27:47.124Z,99.90
2019-03-21T13:30:21.166Z,99.90
2019-03-21T13:32:54.278Z,99.90
2019-03-21T13:35:33.005Z,99.90
2019-03-21T13:38:02.987Z,99.90
2019-03-21T13:40:36.166Z,99.90
2019-03-21T13:43:11.182Z,99.90
2019-03-21T13:45:44.435Z,99.90
2019-03-21T13:48:17.794Z,99.90
2019-03-21T13:50:51.017Z,99.90
2019-03-21T13:53:24.437Z,99.90
2019-03-21T13:55:58.199Z,99.90
2019-03-21T13:58:31.473Z,99.90
2019-03-21T14:01:04.223Z,99.90
2019-03-21T14:03:37.573Z,99.90
2019-03-21T14:06:11.330Z,99.90
2019-03-21T14:08:44.717Z,99.90
2019-03-21T14:11:19.354Z,99.90
2019-03-21T14:13:52.717Z,99.90
2019-03-21T14:16:26.075Z,99.90
2019-03-21T14:18:59.172Z,99.90
2019-03-21T14:21:32.153Z,99.90
2019-03-21T14:24:05.539Z,99.90
2019-03-21T14:26:38.587Z,99.90
2019-03-21T14:29:12.932Z,99.90
2019-03-21T14:31:46.667Z,99.90
2019-03-21T14:34:19.877Z,99.90
2019-03-21T14:36:53.548Z,99.90
2019-03-21T14:39:26.820Z,99.90
2019-03-21T14:42:00.155Z,99.90
2019-03-21T14:44:33.108Z,99.90
2019-03-21T14:47:06.726Z,99.90
2019-03-21T14:49:39.704Z,99.90
2019-03-21T14:52:12.895Z,99.90
2019-03-21T14:54:46.182Z,99.90
2019-03-21T14:57:19.284Z,99.90
2019-03-21T14:59:52.691Z,99.90
2019-03-21T15:02:25.780Z,99.90
2019-03-21T15:04:58.874Z,99.90
2019-03-21T15:07:32.059Z,99.90
2019-03-21T15:10:05.343Z,99.90
2019-03-21T15:12:38.670Z,99.90
2019-03-21T15:15:12.467Z,99.90
2019-03-21T15:17:45.772Z,99.90
2019-03-21T15:20:19.520Z,99.90
2019-03-21T15:22:53.199Z,99.90
2019-03-21T15:25:26.739Z,99.90
2019-03-21T15:28:00.043Z,99.90
2019-03-21T15:30:33.124Z,99.90
2019-03-21T15:33:06.049Z,99.90
2019-03-21T15:35:39.314Z,99.90
2019-03-21T15:38:12.854Z,99.90
2019-03-21T15:40:45.816Z,99.90
2019-03-21T15:43:18.690Z,99.80
2019-03-21T15:45:52.810Z,98.90
2019-03-21T15:48:26.023Z,99.00
2019-03-21T15:51:04.541Z,99.10
2019-03-21T15:53:34.240Z,98.70
2019-03-21T15:56:07.414Z,97.90
2019-03-21T15:58:40.862Z,97.60
2019-03-21T16:01:14.124Z,96.40
2019-03-21T16:03:48.031Z,96.40
2019-03-21T16:06:21.480Z,96.20
2019-03-21T16:08:54.885Z,97.00
2019-03-21T16:11:27.643Z,98.50
2019-03-21T16:14:01.422Z,99.60
2019-03-21T16:16:34.925Z,99.90
2019-03-21T16:19:07.864Z,99.90
2019-03-21T16:21:41.182Z,99.90
2019-03-21T16:24:14.371Z,99.90
2019-03-21T16:26:47.444Z,99.90
2019-03-21T16:29:20.441Z,99.90
2019-03-21T16:31:53.315Z,99.90
2019-03-21T16:34:26.350Z,99.90
2019-03-21T16:37:01.345Z,99.90
2019-03-21T16:39:34.878Z,99.90
2019-03-21T16:42:07.845Z,99.90
2019-03-21T16:44:40.980Z,99.90
2019-03-21T16:47:14.280Z,99.90
2019-03-21T16:49:47.734Z,99.90
2019-03-21T16:52:20.793Z,99.90
2019-03-21T16:54:53.708Z,99.90
2019-03-21T16:57:27.053Z,99.90
2019-03-21T17:00:00.364Z,99.90
2019-03-21T17:02:33.558Z,99.90
2019-03-21T17:05:07.451Z,99.90
2019-03-21T17:07:40.859Z,99.90
2019-03-21T17:10:13.923Z,99.90
2019-03-21T17:12:47.220Z,99.90
2019-03-21T17:15:20.571Z,99.90
2019-03-21T17:17:54.270Z,99.90
2019-03-21T17:20:27.816Z,99.90
2019-03-21T17:23:03.755Z,99.90
2019-03-21T17:25:36.798Z,99.90
2019-03-21T17:28:10.056Z,99.90
2019-03-21T17:30:43.530Z,99.90
2019-03-21T17:33:16.488Z,99.90
2019-03-21T17:35:49.529Z,99.90
2019-03-21T17:38:22.628Z,99.90
2019-03-21T17:40:55.976Z,99.90
2019-03-21T17:43:30.559Z,99.90
2019-03-21T17:46:03.989Z,99.90
2019-03-21T17:48:37.044Z,99.90
2019-03-21T17:51:10.126Z,99.90
2019-03-21T17:53:43.130Z,99.90
2019-03-21T17:56:16.538Z,99.90
2019-03-21T17:58:49.829Z,99.00
2019-03-21T18:01:22.760Z,97.90
2019-03-21T18:03:56.236Z,98.60
2019-03-21T18:06:29.114Z,99.10
2019-03-21T18:09:02.309Z,99.90
2019-03-21T18:11:35.882Z,99.90
2019-03-21T18:14:09.043Z,99.90
2019-03-21T18:16:42.738Z,99.90
2019-03-21T18:19:16.052Z,99.90
2019-03-21T18:21:49.064Z,99.90
2019-03-21T18:24:22.354Z,99.90
2019-03-21T18:26:55.447Z,99.90
2019-03-21T18:29:37.402Z,99.90
2019-03-21T18:32:10.835Z,99.90
2019-03-21T18:34:44.127Z,99.90
2019-03-21T18:37:17.744Z,99.90
2019-03-21T18:39:51.213Z,99.90
2019-03-21T18:42:24.316Z,99.90
2019-03-21T18:44:57.788Z,99.90
2019-03-21T18:47:31.321Z,99.90
2019-03-21T18:50:04.644Z,99.90
2019-03-21T18:52:38.556Z,99.90
2019-03-21T18:55:13.109Z,99.90
2019-03-21T18:57:46.435Z,99.90
2019-03-21T19:00:20.887Z,99.90
2019-03-21T19:02:54.083Z,99.90
2019-03-21T19:05:27.273Z,99.90
2019-03-21T19:08:00.660Z,99.90
2019-03-21T19:10:33.818Z,99.90
2019-03-21T19:13:08.289Z,99.90
2019-03-21T19:15:41.978Z,99.90
2019-03-21T19:18:15.174Z,99.90
2019-03-21T19:20:48.122Z,99.90
2019-03-21T19:23:22.242Z,99.90
2019-03-21T19:25:55.547Z,99.90
2019-03-21T19:28:29.080Z,99.90
2019-03-21T19:31:02.764Z,99.90
2019-03-21T19:33:37.114Z,99.90
2019-03-21T19:36:10.393Z,99.90
2019-03-21T19:38:43.784Z,99.90
2019-03-21T19:41:17.608Z,99.90
2019-03-21T19:43:50.763Z,99.90
2019-03-21T19:46:23.757Z,99.90
2019-03-21T19:48:56.860Z,99.90
2019-03-21T19:51:30.869Z,99.90
2019-03-21T19:54:04.783Z,99.90
2019-03-21T19:56:38.284Z,99.90
2019-03-21T19:59:11.615Z,99.90
2019-03-21T20:01:45.321Z,99.90
2019-03-21T20:04:18.571Z,99.90
2019-03-21T20:06:51.615Z,99.90
2019-03-21T20:09:24.559Z,99.90
2019-03-21T20:11:57.637Z,99.90
2019-03-21T20:14:31.112Z,99.90
2019-03-21T20:17:03.988Z,99.90
2019-03-21T20:19:37.426Z,99.90
2019-03-21T20:22:11.058Z,99.90
2019-03-21T20:24:44.962Z,99.90
2019-03-21T20:27:18.288Z,99.90
2019-03-21T20:29:51.579Z,99.90
2019-03-21T20:32:24.598Z,99.90
2019-03-21T20:34:57.791Z,99.90
2019-03-21T20:37:31.071Z,99.90
2019-03-21T20:40:04.178Z,99.90
2019-03-21T20:42:37.124Z,99.90
2019-03-21T20:45:11.073Z,99.90
2019-03-21T20:47:43.958Z,99.90
2019-03-21T20:50:18.138Z,99.90
2019-03-21T20:52:51.722Z,99.90
2019-03-21T20:55:24.580Z,99.90
2019-03-21T20:57:57.426Z,99.90
2019-03-21T21:00:30.461Z,99.90
2019-03-21T21:03:03.517Z,99.90
2019-03-21T21:05:37.499Z,99.90
2019-03-21T21:08:10.908Z,99.90
2019-03-21T21:10:44.570Z,99.90
2019-03-21T21:13:17.682Z,99.90
2019-03-21T21:15:50.958Z,99.90
2019-03-21T21:18:24.062Z,99.90
2019-03-21T21:20:57.502Z,99.90
2019-03-21T21:23:30.759Z,99.90
2019-03-21T21:26:05.742Z,99.90
2019-03-21T21:28:39.090Z,99.90
2019-03-21T21:31:12.600Z,99.90
2019-03-21T21:33:45.271Z,99.90
2019-03-21T21:36:22.189Z,99.90
2019-03-21T21:38:53.138Z,99.90
2019-03-21T21:41:26.525Z,99.90
2019-03-21T21:43:59.482Z,99.90
2019-03-21T21:46:33.494Z,99.90
2019-03-21T21:49:07.181Z,99.90
2019-03-21T21:51:41.464Z,99.90
2019-03-21T21:54:14.377Z,99.90
2019-03-21T21:56:47.618Z,99.90
2019-03-21T21:59:20.749Z,99.90
2019-03-21T22:01:53.971Z,99.90
2019-03-21T22:04:26.950Z,99.90
2019-03-21T22:07:00.256Z,99.90
2019-03-21T22:09:33.046Z,99.90
2019-03-21T22:12:06.856Z,99.90
2019-03-21T22:14:40.333Z,99.90
2019-03-21T22:17:13.587Z,99.90
2019-03-21T22:19:46.539Z,99.90
2019-03-21T22:22:19.835Z,99.90
2019-03-21T22:24:53.333Z,99.90
2019-03-21T22:27:26.418Z,99.90
2019-03-21T22:29:59.070Z,99.90
2019-03-21T22:32:32.403Z,99.90
2019-03-21T22:35:05.249Z,99.90
2019-03-21T22:37:38.380Z,99.90
2019-03-21T22:40:13.265Z,99.90
2019-03-21T22:42:46.501Z,99.90
2019-03-21T22:45:19.451Z,99.90
2019-03-21T22:47:52.652Z,99.90
2019-03-21T22:50:25.765Z,99.90
2019-03-21T22:52:58.744Z,99.90
2019-03-21T22:55:32.225Z,99.90
2019-03-21T22:58:05.648Z,99.90
2019-03-21T23:00:46.568Z,99.90
2019-03-21T23:03:19.511Z,99.90
2019-03-21T23:05:52.650Z,99.90
2019-03-21T23:08:26.348Z,99.90
2019-03-21T23:10:59.357Z,99.90
2019-03-21T23:13:32.623Z,99.90
2019-03-21T23:16:06.302Z,99.90
2019-03-21T23:18:39.723Z,99.90
2019-03-21T23:21:13.183Z,99.90
2019-03-21T23:23:46.903Z,99.90
2019-03-21T23:26:20.356Z,99.90
2019-03-21T23:28:53.579Z,99.90
2019-03-21T23:31:27.022Z,99.90
2019-03-21T23:34:00.516Z,99.90
2019-03-21T23:36:33.861Z,99.90
2019-03-21T23:39:07.715Z,99.90
2019-03-21T23:41:41.230Z,99.90
2019-03-21T23:44:14.279Z,99.90
2019-03-21T23:46:48.226Z,99.90
2019-03-21T23:49:21.707Z,99.90
2019-03-21T23:51:54.553Z,99.90
2019-03-21T23:54:27.845Z,99.90
2019-03-21T23:57:04.809Z,99.90
2019-03-21T23:59:36.237Z,99.90
